Flight Track Log - Related Links

Times and Time Zones

All times are in EDT time to prevent confusion due to time zone crossing. See the UAL695 flight status page for this flight to view local times or setup timezone preferences in your user account.

Time Position Orientation Groundspeed Altitude Reporting Facility
EDT Latitude Longitude Course Direction KTS MPH feet Rate Location/Type
Thu 08:13:24 PM 40.7667 -73.8333 72° East 161 185 1,600  Level New York TRACON
Thu 08:14:24 PM 40.7833 -73.7667 72° East 228 262 4,000 2,500 Climbing New York TRACON
Thu 08:15:24 PM 40.8500 -73.7667 360° North 251 289 6,600 2,810 Climbing New York TRACON
Thu 08:16:30 PM 40.8833 -73.8667 294° West 292 336 9,900 2,355 Climbing New York TRACON
Thu 08:18:58 PM 41.0447 -73.9983 328° Northwest 317 365 15,000 1,636 Climbing New York Center
Thu 08:19:59 PM 41.0800 -74.1514 287° West 353 406 15,600 454 Climbing New York Center
Thu 08:20:57 PM 41.0944 -74.2953 278° West 412 474 15,900 151 Climbing New York Center
Thu 08:21:58 PM 41.1106 -74.4475 278° West 398 458 15,900 50 Level New York Center
Thu 08:22:58 PM 41.1233 -74.5719 278° West 366 421 16,000 50 Climbing New York Center
Thu 08:23:59 PM 41.1400 -74.6997 280° West 354 407 16,000 1,059 Level New York Center
Thu 08:24:57 PM 41.1842 -74.8097 298° West 344 396 18,100 1,750 Climbing New York Center
Thu 08:25:59 PM 41.2308 -74.9092 302° West 351 404 19,500 1,279 Climbing New York Center
Thu 08:26:59 PM 41.2825 -75.0339 299° West 370 426 20,700 1,525 Climbing New York Center
Thu 08:27:57 PM 41.3403 -75.1644 301° West 389 448 22,500 1,729 Climbing New York Center
Thu 08:28:57 PM 41.3956 -75.2981 299° West 411 473 24,100 1,488 Climbing New York Center
Thu 08:29:58 PM 41.4528 -75.4322 300° West 416 479 25,500 1,180 Climbing New York Center
Thu 08:30:59 PM 41.5033 -75.5769 295° West 423 487 26,500 1,230 Climbing New York Center
Thu 08:32:00 PM 41.5469 -75.7297 291° West 430 495 28,000 1,271 Climbing New York Center
Thu 08:32:57 PM 41.5925 -75.8856 291° West 445 512 29,000 1,008 Climbing New York Center
Thu 08:33:59 PM 41.6356 -76.0444 290° West 445 512 30,000 1,279 Climbing New York Center
Thu 08:34:59 PM 41.6803 -76.2033 291° West 451 519 31,600 1,550 Climbing New York Center
Thu 08:35:59 PM 41.7233 -76.3569 291° West 451 519 33,100 1,146 Climbing New York Center
Thu 08:37:36 PM 41.7908 -76.6031 290° West 454 522 34,600 955 Climbing Cleveland Center
Thu 08:38:36 PM 41.8358 -76.7592 291° West 454 522 35,600 700 Climbing Cleveland Center
Thu 08:39:36 PM 41.8761 -76.9072 290° West 442 509 36,000 200 Climbing Cleveland Center
Thu 08:40:36 PM 41.9164 -77.0586 290° West 431 496 36,000  Level Cleveland Center
Thu 08:41:36 PM 41.9583 -77.2100 290° West 431 496 36,000  Level Cleveland Center
Thu 08:42:36 PM 41.9983 -77.3642 289° West 436 502 36,000  Level Cleveland Center
Thu 08:43:36 PM 42.0400 -77.5161 290° West 436 502 36,000  Level Cleveland Center
Thu 08:44:36 PM 42.0794 -77.6653 290° West 436 502 36,000  Level Cleveland Center
Thu 08:45:36 PM 42.1206 -77.8200 290° West 436 502 36,000  Level Cleveland Center
Thu 08:46:36 PM 42.1575 -77.9725 288° West 436 502 36,000  Level Cleveland Center
Thu 08:47:36 PM 42.1986 -78.1250 290° West 436 502 36,000  Level Cleveland Center
Thu 08:48:36 PM 42.2392 -78.2778 290° West 436 502 36,000  Level Cleveland Center
Thu 08:49:36 PM 42.2842 -78.4444 290° West 436 502 36,000  Level Cleveland Center
Thu 08:50:36 PM 42.3222 -78.6006 288° West 436 502 36,000  Level Cleveland Center
Thu 08:51:36 PM 42.3603 -78.7539 289° West 436 502 36,000  Level Cleveland Center
Thu 08:52:36 PM 42.4000 -78.9075 289° West 436 502 36,000  Level Cleveland Center
Thu 08:53:36 PM 42.4378 -79.0611 288° West 436 502 36,000  Level Cleveland Center
Thu 08:54:36 PM 42.4772 -79.2178 289° West 436 502 36,000  Level Cleveland Center
Thu 08:55:36 PM 42.4978 -79.3750 280° West 431 496 36,000  Level Cleveland Center
Thu 08:56:36 PM 42.5033 -79.5328 273° West 431 496 36,000  Level Cleveland Center
Thu 08:57:36 PM 42.5131 -79.6958 275° West 426 490 36,000  Level Cleveland Center
Thu 08:58:36 PM 42.5225 -79.8564 275° West 426 490 36,000  Level Cleveland Center
Thu 08:59:36 PM 42.5256 -80.0056 272° West 435 501 36,000  Level Cleveland Center
Thu 09:00:36 PM 42.5325 -80.1661 273° West 435 501 36,000  Level Cleveland Center
Thu 09:01:36 PM 42.5392 -80.3267 273° West 435 501 36,000  Level Cleveland Center
Thu 09:02:36 PM 42.5456 -80.4875 273° West 435 501 36,000  Level Cleveland Center
Thu 09:03:36 PM 42.5519 -80.6508 273° West 441 507 36,000  Level Cleveland Center
Thu 09:04:36 PM 42.5578 -80.8256 273° West 436 502 36,000  Level Cleveland Center
Thu 09:05:36 PM 42.5636 -80.9864 273° West 436 502 36,000  Level Cleveland Center
Thu 09:06:36 PM 42.5714 -81.1528 274° West 436 502 36,000  Level Cleveland Center
Thu 09:07:36 PM 42.5767 -81.3106 273° West 443 510 36,000  Level Cleveland Center
Thu 09:08:36 PM 42.5858 -81.4742 274° West 436 502 36,000  Level Cleveland Center
Thu 09:09:36 PM 42.6158 -81.6328 284° West 436 502 36,000  Level Cleveland Center
Thu 09:10:36 PM 42.6397 -81.7631 284° West 436 502 36,000  Level Cleveland Center
Thu 09:11:35 PM 42.6669 -81.9358 282° West 431 496 36,000  Level Cleveland Center
Thu 09:12:35 PM 42.6942 -82.0972 283° West 431 496 36,000  Level Cleveland Center
Thu 09:13:36 PM 42.7086 -82.2617 277° West 436 502 36,000  Level Cleveland Center
Thu 09:14:36 PM 42.7228 -82.4231 277° West 436 502 36,000  Level Cleveland Center
Thu 09:15:36 PM 42.7342 -82.6042 275° West 436 502 36,000  Level Cleveland Center
Thu 09:16:36 PM 42.7439 -82.7658 275° West 436 502 36,000  Level Cleveland Center
Thu 09:17:35 PM 42.7553 -82.9272 276° West 436 502 36,000  Level Cleveland Center
Thu 09:18:36 PM 42.7622 -83.0889 273° West 436 502 36,000  Level Cleveland Center
Thu 09:19:36 PM 42.7731 -83.2533 275° West 441 507 36,000  Level Cleveland Center
Thu 09:20:35 PM 42.7797 -83.4178 273° West 441 507 36,000  Level Cleveland Center
Thu 09:21:36 PM 42.7881 -83.5822 274° West 441 507 36,000  Level Cleveland Center
Thu 09:22:36 PM 42.7981 -83.7469 275° West 441 507 36,000  Level Cleveland Center
Thu 09:23:36 PM 42.8042 -83.9086 273° West 441 507 36,000  Level Cleveland Center
Thu 09:24:36 PM 42.8117 -84.0731 274° West 436 502 36,000  Level Cleveland Center
Thu 09:25:36 PM 42.8192 -84.2378 274° West 441 507 36,000 -151 Level Cleveland Center
Thu 09:26:35 PM 42.8250 -84.3769 273° West 441 507 35,700 -733 Descending Cleveland Center
Thu 09:28:36 PM 42.8411 -84.7000 274° West 439 505 33,800 -1,082 Descending Chicago Center
Thu 09:29:38 PM 42.8475 -84.8658 273° West 440 506 32,400 -871 Descending Chicago Center
Thu 09:30:40 PM 42.8331 -85.0675 264° West 452 520 32,000 -629 Descending Chicago Center
Thu 09:31:42 PM 42.8158 -85.2344 262° West 447 514 31,100 -1,355 Descending Chicago Center
Thu 09:32:44 PM 42.7972 -85.4017 261° West 446 513 29,200 -1,839 Descending Chicago Center
Thu 09:33:46 PM 42.7742 -85.5708 260° West 451 519 27,300 -1,790 Descending Chicago Center
Thu 09:34:48 PM 42.7433 -85.7375 256° West 453 521 25,500 -1,790 Descending Chicago Center
Thu 09:35:50 PM 42.7133 -85.9025 256° West 449 517 23,600 -1,805 Descending Chicago Center
Thu 09:36:51 PM 42.6839 -86.0656 256° West 442 509 21,800 -1,707 Descending Chicago Center
Thu 09:37:53 PM 42.6547 -86.2244 256° West 433 498 20,100 -871 Descending Chicago Center
Thu 09:38:55 PM 42.6189 -86.4083 255° West 421 484 20,000 -48 Descending Chicago Center
Thu 09:39:57 PM 42.5900 -86.5614 256° West 419 482 20,000  Level Chicago Center
Thu 09:40:59 PM 42.5642 -86.7108 257° West 421 484 20,000 -1,113 Level Chicago Center
Thu 09:42:01 PM 42.5258 -86.8578 251° West 417 480 17,700 -2,537 Descending Chicago Center
Thu 09:43:02 PM 42.4844 -87.0053 249° West 405 466 14,800 -2,683 Descending Chicago Center
Thu 09:44:04 PM 42.4464 -87.1411 249° West 390 449 12,200 -2,323 Descending Chicago Center
Thu 09:45:06 PM 42.4100 -87.2733 250° West 378 435 10,000 -1,065 Descending Chicago Center
Thu 09:46:08 PM 42.3728 -87.4131 250° West 354 407 10,000  Level Chicago Center
Thu 09:47:10 PM 42.3375 -87.5333 248° West 346 398 10,000  Level Chicago Center
Thu 09:48:12 PM 42.2628 -87.6122 218° Southwest 341 392 10,000  Level Chicago Center
Thu 09:49:14 PM 42.1744 -87.7078 219° Southwest 339 390 10,000  Level Chicago Center
Thu 09:49:53 PM 42.1167 -87.7667 217° Southwest 334 384 10,000 -396 Level Chicago TRACON
Thu 09:51:00 PM 42.0500 -87.8333 217° Southwest 276 318 9,300 -898 Descending Chicago TRACON
Thu 09:52:00 PM 42.0000 -87.9000 225° Southwest 253 291 8,100 -1,200 Descending Chicago TRACON
Thu 09:53:00 PM 41.9333 -87.9667 217° Southwest 261 300 6,900 -1,450 Descending Chicago TRACON
Thu 09:54:00 PM 41.9167 -88.0667 257° West 274 315 5,200 -1,450 Descending Chicago TRACON
Thu 09:55:00 PM 41.9000 -88.1667 257° West 269 310 4,000 -857 Descending Chicago TRACON
Thu 09:55:24 PM 41.9192 -88.1919 316° Northwest 267 307 4,000 -488 Level Chicago Center
Thu 09:56:26 PM 41.9675 -88.1619 25° Northeast 244 281 3,300 -677 Descending Chicago Center

Login

Don't have an account? Register now (free) for customized features, flight alerts, and more!